createdAt,value
2019-01-25T00:00:52.015Z,-6.63
2019-01-25T00:03:17.942Z,-6.69
2019-01-25T00:05:43.942Z,-6.73
2019-01-25T00:08:10.468Z,-6.76
2019-01-25T00:10:36.398Z,-6.80
2019-01-25T00:13:02.827Z,-6.81
2019-01-25T00:15:28.788Z,-6.84
2019-01-25T00:17:54.819Z,-6.85
2019-01-25T00:20:20.740Z,-6.88
2019-01-25T00:22:46.702Z,-6.89
2019-01-25T00:25:13.642Z,-6.90
2019-01-25T00:27:40.079Z,-6.90
2019-01-25T00:30:12.135Z,-6.89
2019-01-25T00:32:38.140Z,-6.90
2019-01-25T00:35:06.657Z,-6.90
2019-01-25T00:37:32.719Z,-6.88
2019-01-25T00:40:05.977Z,-6.75
2019-01-25T00:42:27.201Z,-6.73
2019-01-25T00:44:53.168Z,-6.76
2019-01-25T00:47:19.102Z,-6.80
2019-01-25T00:49:45.223Z,-6.82
2019-01-25T00:52:11.371Z,-6.85
2019-01-25T00:54:37.708Z,-6.88
2019-01-25T00:57:03.640Z,-6.93
2019-01-25T00:59:29.602Z,-6.96
2019-01-25T01:01:55.526Z,-6.98
2019-01-25T01:04:21.452Z,-7.01
2019-01-25T01:06:47.399Z,-7.04
2019-01-25T01:09:13.364Z,-7.06
2019-01-25T01:11:39.251Z,-7.08
2019-01-25T01:14:05.451Z,-7.10
2019-01-25T01:16:31.882Z,-7.11
2019-01-25T01:18:59.720Z,-7.12
2019-01-25T01:21:25.682Z,-7.16
2019-01-25T01:23:51.606Z,-7.22
2019-01-25T01:26:18.638Z,-7.25
2019-01-25T01:28:44.605Z,-7.27
2019-01-25T01:31:10.526Z,-7.29
2019-01-25T01:33:36.512Z,-7.32
2019-01-25T01:36:03.584Z,-7.34
2019-01-25T01:38:29.518Z,-7.34
2019-01-25T01:40:55.443Z,-7.35
2019-01-25T01:43:21.503Z,-7.37
2019-01-25T01:45:47.511Z,-7.39
2019-01-25T01:48:13.666Z,-7.39
2019-01-25T01:50:40.619Z,-7.41
2019-01-25T01:53:06.551Z,-7.42
2019-01-25T01:55:32.472Z,-7.46
2019-01-25T01:57:58.479Z,-7.48
2019-01-25T02:00:25.121Z,-7.49
2019-01-25T02:02:51.647Z,-7.52
2019-01-25T02:05:17.907Z,-7.54
2019-01-25T02:07:44.137Z,-7.55
2019-01-25T02:10:13.671Z,-7.57
2019-01-25T02:12:39.638Z,-7.59
2019-01-25T02:15:08.174Z,-7.60
2019-01-25T02:17:34.097Z,-7.59
2019-01-25T02:20:00.117Z,-7.60
2019-01-25T02:22:26.105Z,-7.63
2019-01-25T02:24:52.227Z,-7.64
2019-01-25T02:27:18.216Z,-7.65
2019-01-25T02:29:44.135Z,-7.67
2019-01-25T02:32:10.065Z,-7.68
2019-01-25T02:34:36.094Z,-7.69
2019-01-25T02:37:02.319Z,-7.69
2019-01-25T02:39:28.240Z,-7.70
2019-01-25T02:41:55.007Z,-7.72
2019-01-25T02:44:20.943Z,-7.74
2019-01-25T02:46:46.863Z,-7.77
2019-01-25T02:49:12.824Z,-7.80
2019-01-25T02:51:38.753Z,-7.84
2019-01-25T02:54:05.588Z,-7.86
2019-01-25T02:56:31.541Z,-7.91
2019-01-25T02:58:57.472Z,-7.94
2019-01-25T03:01:23.392Z,-7.98
2019-01-25T03:03:49.380Z,-8.04
2019-01-25T03:06:15.312Z,-8.09
2019-01-25T03:08:41.227Z,-8.16
2019-01-25T03:11:08.686Z,-8.19
2019-01-25T03:13:34.615Z,-8.19
2019-01-25T03:16:00.539Z,-8.21
2019-01-25T03:18:26.502Z,-8.24
2019-01-25T03:20:52.726Z,-8.23
2019-01-25T03:23:19.585Z,-8.23
2019-01-25T03:25:46.072Z,-8.25
2019-01-25T03:28:11.993Z,-8.26
2019-01-25T03:30:37.921Z,-8.28
2019-01-25T03:33:04.231Z,-8.29
2019-01-25T03:35:30.409Z,-8.29
2019-01-25T03:37:56.833Z,-8.31
2019-01-25T03:40:24.801Z,-8.32
2019-01-25T03:42:50.722Z,-8.33
2019-01-25T03:45:17.242Z,-8.34
2019-01-25T03:47:43.235Z,-8.35
2019-01-25T03:50:21.248Z,-8.36
2019-01-25T03:52:47.410Z,-8.34
2019-01-25T03:55:14.339Z,-8.32
2019-01-25T03:57:40.287Z,-8.31
2019-01-25T04:00:15.632Z,-8.31
2019-01-25T04:02:41.997Z,-8.31
2019-01-25T04:05:10.717Z,-8.34
2019-01-25T04:07:37.307Z,-8.33
2019-01-25T04:10:07.045Z,-8.31
2019-01-25T04:12:33.674Z,-8.28
2019-01-25T04:14:59.636Z,-8.26
2019-01-25T04:17:25.862Z,-8.22
2019-01-25T04:19:51.788Z,-8.17
2019-01-25T04:22:18.758Z,-8.09
2019-01-25T04:24:44.678Z,-8.03
2019-01-25T04:27:10.605Z,-7.94
2019-01-25T04:29:36.594Z,-7.86
2019-01-25T04:32:04.856Z,-7.79
2019-01-25T04:34:30.787Z,-7.69
2019-01-25T04:36:57.675Z,-7.59
2019-01-25T04:39:23.600Z,-7.51
2019-01-25T04:41:51.031Z,-7.44
2019-01-25T04:44:17.014Z,-7.38
2019-01-25T04:46:42.944Z,-7.32
2019-01-25T04:49:08.930Z,-7.27
2019-01-25T04:51:34.957Z,-7.25
2019-01-25T04:54:00.880Z,-7.24
2019-01-25T04:56:28.712Z,-7.21
2019-01-25T04:58:55.002Z,-7.16
2019-01-25T05:01:20.936Z,-7.10
2019-01-25T05:03:46.871Z,-7.05
2019-01-25T05:06:15.140Z,-7.02
2019-01-25T05:08:41.094Z,-6.98
2019-01-25T05:11:19.912Z,-6.97
2019-01-25T05:13:43.507Z,-6.96
2019-01-25T05:16:12.248Z,-6.93
2019-01-25T05:18:38.247Z,-6.93
2019-01-25T05:21:05.861Z,-6.92
2019-01-25T05:23:31.783Z,-6.91
2019-01-25T05:25:57.710Z,-6.90
2019-01-25T05:28:23.670Z,-6.89
2019-01-25T05:30:55.143Z,-6.87
2019-01-25T05:33:21.078Z,-6.85
2019-01-25T05:35:47.261Z,-6.85
2019-01-25T05:38:13.368Z,-6.85
2019-01-25T05:40:39.304Z,-6.84
2019-01-25T05:43:05.265Z,-6.85
2019-01-25T05:45:31.201Z,-6.85
2019-01-25T05:47:57.126Z,-6.85
2019-01-25T05:50:23.071Z,-6.84
2019-01-25T05:52:49.217Z,-6.83
2019-01-25T05:55:17.565Z,-6.83
2019-01-25T05:57:44.262Z,-6.81
2019-01-25T06:00:11.191Z,-6.77
2019-01-25T06:02:37.336Z,-6.75
2019-01-25T06:05:05.159Z,-6.72
2019-01-25T06:07:31.089Z,-6.69
2019-01-25T06:09:57.011Z,-6.66
2019-01-25T06:12:22.973Z,-6.63
2019-01-25T06:14:49.121Z,-6.59
2019-01-25T06:17:15.044Z,-6.57
2019-01-25T06:19:41.059Z,-6.53
2019-01-25T06:22:07.102Z,-6.50
2019-01-25T06:24:33.046Z,-6.47
2019-01-25T06:27:00.036Z,-6.45
2019-01-25T06:29:29.375Z,-6.42
2019-01-25T06:31:55.330Z,-6.38
2019-01-25T06:34:21.694Z,-6.34
2019-01-25T06:36:47.618Z,-6.31
2019-01-25T06:39:13.623Z,-6.28
2019-01-25T06:41:44.045Z,-6.26
2019-01-25T06:44:07.470Z,-6.24
2019-01-25T06:46:35.016Z,-6.19
2019-01-25T06:49:00.987Z,-6.15
2019-01-25T06:51:27.152Z,-6.11
2019-01-25T06:53:53.395Z,-6.08
2019-01-25T06:56:20.123Z,-6.06
2019-01-25T06:58:48.035Z,-6.02
2019-01-25T07:01:15.963Z,-5.94
2019-01-25T07:03:42.140Z,-5.82
2019-01-25T07:06:08.375Z,-5.77
2019-01-25T07:08:35.208Z,-5.73
2019-01-25T07:11:01.235Z,-5.71
2019-01-25T07:13:27.308Z,-5.69
2019-01-25T07:15:53.188Z,-5.68
2019-01-25T07:18:19.147Z,-5.65
2019-01-25T07:20:45.178Z,-5.65
2019-01-25T07:23:11.408Z,-5.60
2019-01-25T07:25:37.489Z,-5.55
2019-01-25T07:28:03.552Z,-5.50
2019-01-25T07:30:32.212Z,-5.47
2019-01-25T07:32:58.488Z,-5.42
2019-01-25T07:35:24.396Z,-5.38
2019-01-25T07:37:50.324Z,-5.35
2019-01-25T07:40:17.317Z,-5.33
2019-01-25T07:42:43.309Z,-5.31
2019-01-25T07:45:11.013Z,-5.29
2019-01-25T07:47:37.730Z,-5.29
2019-01-25T07:50:09.875Z,-5.29
2019-01-25T07:52:35.942Z,-5.27
2019-01-25T07:55:02.928Z,-5.24
2019-01-25T07:57:28.889Z,-5.24
2019-01-25T07:59:54.904Z,-5.21
2019-01-25T08:02:20.903Z,-5.17
2019-01-25T08:04:48.005Z,-5.15
2019-01-25T08:07:14.193Z,-5.11
2019-01-25T08:09:40.146Z,-5.09
2019-01-25T08:12:07.504Z,-5.05
2019-01-25T08:14:34.096Z,-5.00
2019-01-25T08:17:00.053Z,-4.94
2019-01-25T08:19:26.459Z,-4.90
2019-01-25T08:21:52.410Z,-4.86
2019-01-25T08:24:18.426Z,-4.81
2019-01-25T08:26:44.417Z,-4.76
2019-01-25T08:29:10.540Z,-4.73
2019-01-25T08:31:36.754Z,-4.70
2019-01-25T08:34:03.171Z,-4.64
2019-01-25T08:36:29.383Z,-4.59
2019-01-25T08:38:55.993Z,-4.49
2019-01-25T08:41:22.842Z,-4.42
2019-01-25T08:43:48.842Z,-4.36
2019-01-25T08:46:14.821Z,-4.29
2019-01-25T08:48:40.730Z,-4.24
2019-01-25T08:51:06.649Z,-4.21
2019-01-25T08:53:32.711Z,-4.20
2019-01-25T08:55:58.685Z,-4.18
2019-01-25T08:58:24.644Z,-4.15
2019-01-25T09:00:51.846Z,-4.06
2019-01-25T09:03:18.004Z,-4.04
2019-01-25T09:05:44.227Z,-4.01
2019-01-25T09:08:10.305Z,-3.94
2019-01-25T09:10:36.234Z,-3.88
2019-01-25T09:13:02.159Z,-3.82
2019-01-25T09:15:30.650Z,-3.75
2019-01-25T09:17:56.588Z,-3.64
2019-01-25T09:20:22.711Z,-3.51
2019-01-25T09:22:48.669Z,-3.43
2019-01-25T09:25:15.595Z,-3.32
2019-01-25T09:27:41.541Z,-3.21
2019-01-25T09:30:11.009Z,-3.14
2019-01-25T09:32:37.242Z,-3.11
2019-01-25T09:35:04.075Z,-3.08
2019-01-25T09:37:30.152Z,-3.04
2019-01-25T09:39:56.119Z,-3.05
2019-01-25T09:42:22.111Z,-2.99
2019-01-25T09:44:48.282Z,-2.90
2019-01-25T09:47:14.212Z,-2.83
2019-01-25T09:49:42.062Z,-2.82
2019-01-25T09:52:08.228Z,-2.86
2019-01-25T09:54:34.177Z,-2.89
2019-01-25T09:57:01.317Z,-2.90
2019-01-25T09:59:27.316Z,-2.90
2019-01-25T10:01:53.244Z,-2.84
2019-01-25T10:04:19.268Z,-2.85
2019-01-25T10:06:46.429Z,-2.84
2019-01-25T10:09:12.431Z,-2.79
2019-01-25T10:11:38.408Z,-2.76
2019-01-25T10:14:04.679Z,-2.70
2019-01-25T10:16:31.419Z,-2.68
2019-01-25T10:18:59.285Z,-2.70
2019-01-25T10:21:25.272Z,-2.74
2019-01-25T10:23:51.212Z,-2.74
2019-01-25T10:26:17.139Z,-2.79
2019-01-25T10:28:43.093Z,-2.78
2019-01-25T10:31:09.431Z,-2.82
2019-01-25T10:33:35.616Z,-2.84
2019-01-25T10:36:02.693Z,-2.88
2019-01-25T10:38:28.637Z,-2.93
2019-01-25T10:40:54.562Z,-2.94
2019-01-25T10:43:20.861Z,-2.97
2019-01-25T10:45:47.278Z,-3.02
2019-01-25T10:48:13.321Z,-3.03
2019-01-25T10:50:40.163Z,-3.15
2019-01-25T10:53:09.832Z,-3.23
2019-01-25T10:55:35.902Z,-3.24
2019-01-25T10:58:03.195Z,-3.30
2019-01-25T11:00:29.405Z,-3.35
2019-01-25T11:02:58.413Z,-3.39
2019-01-25T11:05:27.245Z,-3.42
2019-01-25T11:07:53.198Z,-3.46
2019-01-25T11:10:19.120Z,-3.48
2019-01-25T11:12:45.590Z,-3.41
2019-01-25T11:15:14.843Z,-3.24
2019-01-25T11:17:41.743Z,-3.04
2019-01-25T11:20:11.062Z,-2.89
2019-01-25T11:22:36.986Z,-2.78
2019-01-25T11:25:06.712Z,-2.72
2019-01-25T11:27:32.917Z,-2.60
2019-01-25T11:30:11.767Z,-2.53
2019-01-25T11:32:37.723Z,-2.46
2019-01-25T11:35:04.768Z,-2.41
2019-01-25T11:37:31.209Z,-2.35
2019-01-25T11:39:57.184Z,-2.27
2019-01-25T11:42:24.008Z,-2.25
2019-01-25T11:44:50.196Z,-2.22
2019-01-25T11:47:19.242Z,-2.16
2019-01-25T11:49:45.473Z,-2.04
2019-01-25T11:52:11.461Z,-1.84
2019-01-25T11:54:37.445Z,-1.63
2019-01-25T11:57:03.399Z,-1.44
2019-01-25T11:59:30.324Z,-1.37
2019-01-25T12:01:56.593Z,-1.33
2019-01-25T12:04:22.533Z,-1.30
2019-01-25T12:06:48.467Z,-1.24
2019-01-25T12:09:14.460Z,-1.23
2019-01-25T12:11:40.595Z,-1.20
2019-01-25T12:14:06.524Z,-1.19
2019-01-25T12:16:32.712Z,-1.23
2019-01-25T12:18:59.060Z,-1.23
2019-01-25T12:21:25.003Z,-1.15
2019-01-25T12:23:51.071Z,-1.09
2019-01-25T12:26:17.010Z,-1.00
2019-01-25T12:28:44.630Z,-0.98
2019-01-25T12:31:10.618Z,-1.07
2019-01-25T12:33:36.549Z,-1.07
2019-01-25T12:36:02.702Z,-1.06
2019-01-25T12:38:28.651Z,-1.06
2019-01-25T12:40:55.007Z,-1.05
2019-01-25T12:43:24.198Z,-1.08
2019-01-25T12:45:52.828Z,-1.21
2019-01-25T12:48:18.755Z,-1.19
2019-01-25T12:50:49.170Z,-1.15
2019-01-25T12:53:15.502Z,-1.13
2019-01-25T12:55:41.520Z,-1.13
2019-01-25T12:58:07.885Z,-1.08
2019-01-25T13:00:34.401Z,-1.06
2019-01-25T13:03:00.333Z,-1.05
2019-01-25T13:05:26.587Z,-1.05
2019-01-25T13:07:52.549Z,-1.06
2019-01-25T13:10:21.318Z,-1.08
2019-01-25T13:12:47.452Z,-1.12
2019-01-25T13:15:13.642Z,-1.08
2019-01-25T13:17:39.693Z,-1.06
2019-01-25T13:20:09.427Z,-1.05
2019-01-25T13:22:35.776Z,-1.12
2019-01-25T13:25:01.705Z,-1.12
2019-01-25T13:27:27.643Z,-1.15
2019-01-25T13:29:53.604Z,-1.17
2019-01-25T13:32:19.532Z,-1.22
2019-01-25T13:34:45.671Z,-1.28
2019-01-25T13:37:11.675Z,-1.29
2019-01-25T13:39:37.921Z,-1.28
2019-01-25T13:42:03.865Z,-1.27
2019-01-25T13:44:30.394Z,-1.33
2019-01-25T13:46:56.513Z,-1.36
2019-01-25T13:49:22.487Z,-1.38
2019-01-25T13:51:48.472Z,-1.42
2019-01-25T13:54:14.393Z,-1.46
2019-01-25T13:56:40.736Z,-1.50
2019-01-25T13:59:07.848Z,-1.59
2019-01-25T14:01:34.676Z,-1.75
2019-01-25T14:04:00.925Z,-1.85
2019-01-25T14:06:26.888Z,-1.95
2019-01-25T14:08:52.832Z,-2.09
2019-01-25T14:11:18.768Z,-2.14
2019-01-25T14:13:46.911Z,-2.23
2019-01-25T14:16:12.591Z,-2.23
2019-01-25T14:18:38.521Z,-2.24
2019-01-25T14:21:04.523Z,-2.28
2019-01-25T14:23:30.458Z,-2.37
2019-01-25T14:25:56.442Z,-2.48
2019-01-25T14:28:22.412Z,-2.63
2019-01-25T14:30:49.060Z,-2.73
2019-01-25T14:33:15.098Z,-2.80
2019-01-25T14:35:41.900Z,-2.88
2019-01-25T14:38:08.032Z,-2.97
2019-01-25T14:40:34.363Z,-3.04
2019-01-25T14:43:00.376Z,-3.12
2019-01-25T14:45:26.607Z,-3.17
2019-01-25T14:47:53.511Z,-3.16
2019-01-25T14:50:28.782Z,-3.14
2019-01-25T14:52:54.717Z,-3.13
2019-01-25T14:55:20.644Z,-3.08
2019-01-25T14:57:46.608Z,-3.03
2019-01-25T15:00:14.349Z,-2.97
2019-01-25T15:02:40.295Z,-2.94
2019-01-25T15:05:12.530Z,-2.93
2019-01-25T15:07:38.477Z,-2.98
2019-01-25T15:10:08.210Z,-3.01
2019-01-25T15:12:34.363Z,-2.99
2019-01-25T15:15:00.603Z,-2.98
2019-01-25T15:17:26.523Z,-3.00
2019-01-25T15:19:52.504Z,-3.03
2019-01-25T15:22:18.635Z,-3.03
2019-01-25T15:24:44.878Z,-3.04
2019-01-25T15:27:11.768Z,-3.07
2019-01-25T15:29:37.688Z,-3.08
2019-01-25T15:32:03.814Z,-3.10
2019-01-25T15:34:29.903Z,-3.12
2019-01-25T15:36:55.840Z,-3.13
2019-01-25T15:39:21.770Z,-3.15
2019-01-25T15:41:48.211Z,-3.13
2019-01-25T15:44:14.482Z,-3.17
2019-01-25T15:46:40.434Z,-3.17
2019-01-25T15:49:07.167Z,-3.16
2019-01-25T15:51:33.521Z,-3.13
2019-01-25T15:53:59.424Z,-3.14
2019-01-25T15:56:25.379Z,-3.14
2019-01-25T15:58:51.307Z,-3.17
2019-01-25T16:01:17.743Z,-3.18
2019-01-25T16:03:44.027Z,-3.18
2019-01-25T16:06:10.377Z,-3.18
2019-01-25T16:08:36.309Z,-3.14
2019-01-25T16:11:03.341Z,-3.12
2019-01-25T16:13:29.598Z,-3.11
2019-01-25T16:15:55.598Z,-3.12
2019-01-25T16:18:21.691Z,-3.14
2019-01-25T16:20:48.256Z,-3.16
2019-01-25T16:23:14.189Z,-3.16
2019-01-25T16:25:40.152Z,-3.14
2019-01-25T16:28:06.126Z,-3.15
2019-01-25T16:30:33.956Z,-3.14
2019-01-25T16:33:00.299Z,-3.13
2019-01-25T16:35:29.342Z,-3.11
2019-01-25T16:37:55.827Z,-3.13
2019-01-25T16:40:25.224Z,-3.16
2019-01-25T16:42:51.165Z,-3.17
2019-01-25T16:45:22.849Z,-3.17
2019-01-25T16:47:53.645Z,-3.18
2019-01-25T16:50:23.794Z,-3.19
2019-01-25T16:52:54.816Z,-3.20
2019-01-25T16:55:23.314Z,-3.26
2019-01-25T16:57:49.550Z,-3.25
2019-01-25T17:00:21.476Z,-3.26
2019-01-25T17:02:47.659Z,-3.28
2019-01-25T17:05:14.019Z,-3.27
2019-01-25T17:07:39.947Z,-3.24
2019-01-25T17:10:13.720Z,-3.24
2019-01-25T17:12:44.238Z,-3.26
2019-01-25T17:15:13.923Z,-3.23
2019-01-25T17:17:39.942Z,-3.22
2019-01-25T17:20:08.989Z,-3.21
2019-01-25T17:22:34.917Z,-3.23
2019-01-25T17:25:00.889Z,-3.26
2019-01-25T17:27:26.827Z,-3.28
2019-01-25T17:29:52.763Z,-3.31
2019-01-25T17:32:19.039Z,-3.32
2019-01-25T17:34:44.992Z,-3.33
2019-01-25T17:37:11.131Z,-3.32
2019-01-25T17:39:37.276Z,-3.33
2019-01-25T17:42:03.723Z,-3.35
2019-01-25T17:44:29.671Z,-3.37
2019-01-25T17:46:55.674Z,-3.41
2019-01-25T17:49:21.964Z,-3.42
2019-01-25T17:51:47.961Z,-3.47
2019-01-25T17:54:13.917Z,-3.50
2019-01-25T17:56:44.660Z,-3.53
2019-01-25T17:59:10.610Z,-3.62
2019-01-25T18:01:36.597Z,-3.70
2019-01-25T18:04:04.273Z,-3.76
2019-01-25T18:06:30.440Z,-3.79
2019-01-25T18:08:56.741Z,-3.79
2019-01-25T18:11:23.784Z,-3.77
2019-01-25T18:13:51.031Z,-3.77
2019-01-25T18:16:17.236Z,-3.79
2019-01-25T18:18:43.194Z,-3.81
2019-01-25T18:21:10.010Z,-3.82
2019-01-25T18:23:36.025Z,-3.82
2019-01-25T18:26:02.056Z,-3.81
2019-01-25T18:28:31.809Z,-3.84
2019-01-25T18:31:04.647Z,-3.86
2019-01-25T18:33:30.592Z,-3.84
2019-01-25T18:35:56.534Z,-3.82
2019-01-25T18:38:22.621Z,-3.84
2019-01-25T18:40:48.581Z,-3.83
2019-01-25T18:43:15.216Z,-3.85
2019-01-25T18:45:42.435Z,-3.85
2019-01-25T18:48:08.373Z,-3.83
2019-01-25T18:50:34.433Z,-3.79
2019-01-25T18:53:00.746Z,-3.79
2019-01-25T18:55:26.724Z,-3.73
2019-01-25T18:57:52.671Z,-3.69
2019-01-25T19:00:21.324Z,-3.69
2019-01-25T19:02:47.285Z,-3.69
2019-01-25T19:05:15.424Z,-3.69
2019-01-25T19:07:42.469Z,-3.66
2019-01-25T19:10:26.287Z,-3.69
2019-01-25T19:12:52.261Z,-3.73
2019-01-25T19:15:22.208Z,-3.74
2019-01-25T19:17:48.258Z,-3.74
2019-01-25T19:20:15.194Z,-3.73
2019-01-25T19:22:41.130Z,-3.69
2019-01-25T19:25:09.593Z,-3.66
2019-01-25T19:27:35.600Z,-3.61
2019-01-25T19:30:04.754Z,-3.55
2019-01-25T19:32:30.711Z,-3.52
2019-01-25T19:34:56.754Z,-3.53
2019-01-25T19:37:24.495Z,-3.52
2019-01-25T19:39:50.759Z,-3.52
2019-01-25T19:42:16.780Z,-3.48
2019-01-25T19:44:42.714Z,-3.43
2019-01-25T19:47:08.646Z,-3.45
2019-01-25T19:49:39.620Z,-3.46
2019-01-25T19:52:05.793Z,-3.44
2019-01-25T19:54:32.029Z,-3.43
2019-01-25T19:56:58.602Z,-3.42
2019-01-25T19:59:26.788Z,-3.41
2019-01-25T20:01:52.934Z,-3.41
2019-01-25T20:04:18.990Z,-3.39
2019-01-25T20:06:45.042Z,-3.38
2019-01-25T20:09:11.059Z,-3.39
2019-01-25T20:11:37.808Z,-3.35
2019-01-25T20:14:06.626Z,-3.34
2019-01-25T20:16:37.290Z,-3.29
2019-01-25T20:19:03.640Z,-3.30
2019-01-25T20:21:29.982Z,-3.33
2019-01-25T20:23:57.058Z,-3.32
2019-01-25T20:26:23.420Z,-3.30
2019-01-25T20:28:49.463Z,-3.30
2019-01-25T20:31:15.499Z,-3.22
2019-01-25T20:33:41.658Z,-3.15
2019-01-25T20:36:08.681Z,-3.08
2019-01-25T20:38:45.265Z,-3.08
2019-01-25T20:41:11.290Z,-3.09
2019-01-25T20:43:37.228Z,-3.12
2019-01-25T20:46:06.284Z,-3.15
2019-01-25T20:48:32.384Z,-3.19
2019-01-25T20:50:58.308Z,-3.20
2019-01-25T20:53:24.669Z,-3.20
2019-01-25T20:55:54.433Z,-3.18
2019-01-25T20:58:20.378Z,-3.21
2019-01-25T21:00:46.425Z,-3.21
2019-01-25T21:03:14.004Z,-3.17
2019-01-25T21:05:40.273Z,-3.20
2019-01-25T21:08:06.217Z,-3.26
2019-01-25T21:10:32.205Z,-3.28
2019-01-25T21:12:58.276Z,-3.29
2019-01-25T21:15:26.120Z,-3.31
2019-01-25T21:17:52.649Z,-3.30
2019-01-25T21:20:27.392Z,-3.33
2019-01-25T21:22:53.333Z,-3.33
2019-01-25T21:25:19.427Z,-3.34
2019-01-25T21:27:45.397Z,-3.34
2019-01-25T21:30:17.566Z,-3.36
2019-01-25T21:32:43.732Z,-3.36
2019-01-25T21:35:09.968Z,-3.38
2019-01-25T21:37:36.214Z,-3.39
2019-01-25T21:40:08.556Z,-3.33
2019-01-25T21:42:33.846Z,-3.33
2019-01-25T21:44:59.847Z,-3.33
2019-01-25T21:47:25.824Z,-3.33
2019-01-25T21:49:54.798Z,-3.38
2019-01-25T21:52:22.640Z,-3.39
2019-01-25T21:54:50.045Z,-3.39
2019-01-25T21:57:16.050Z,-3.40
2019-01-25T21:59:41.998Z,-3.44
2019-01-25T22:02:08.269Z,-3.44
2019-01-25T22:04:34.405Z,-3.41
2019-01-25T22:07:02.394Z,-3.38
2019-01-25T22:09:28.405Z,-3.37
2019-01-25T22:11:54.389Z,-3.36
2019-01-25T22:14:20.413Z,-3.33
2019-01-25T22:16:46.516Z,-3.33
2019-01-25T22:19:12.459Z,-3.32
2019-01-25T22:21:38.525Z,-3.31
2019-01-25T22:24:04.660Z,-3.32
2019-01-25T22:26:32.130Z,-3.32
2019-01-25T22:28:58.125Z,-3.31
2019-01-25T22:31:24.086Z,-3.31
2019-01-25T22:33:50.089Z,-3.31
2019-01-25T22:36:16.204Z,-3.31
2019-01-25T22:38:42.517Z,-3.27
2019-01-25T22:41:08.456Z,-3.24
2019-01-25T22:43:34.499Z,-3.24
2019-01-25T22:46:13.100Z,-3.27
2019-01-25T22:48:39.042Z,-3.25
2019-01-25T22:51:05.206Z,-3.24
2019-01-25T22:53:31.204Z,-3.23
2019-01-25T22:55:57.131Z,-3.23
2019-01-25T22:58:26.919Z,-3.22
2019-01-25T23:01:06.413Z,-3.19
2019-01-25T23:03:40.043Z,-3.17
2019-01-25T23:06:33.625Z,-3.15
2019-01-25T23:09:05.176Z,-3.18
2019-01-25T23:11:35.797Z,-3.15
2019-01-25T23:14:16.306Z,-3.15
2019-01-25T23:16:47.299Z,-3.12
2019-01-25T23:19:14.982Z,-3.12
2019-01-25T23:21:41.312Z,-3.11
2019-01-25T23:24:10.263Z,-3.10
2019-01-25T23:26:42.560Z,-3.08
2019-01-25T23:29:08.617Z,-3.04
2019-01-25T23:31:38.693Z,-3.03
2019-01-25T23:34:08.030Z,-3.02
2019-01-25T23:36:35.420Z,-3.03
2019-01-25T23:39:06.043Z,-3.04
2019-01-25T23:41:33.672Z,-3.07
2019-01-25T23:43:59.616Z,-3.06
2019-01-25T23:46:30.803Z,-3.03
2019-01-25T23:48:56.766Z,-3.00
2019-01-25T23:51:27.664Z,-3.01
2019-01-25T23:53:57.509Z,-2.99
2019-01-25T23:56:28.038Z,-3.00
2019-01-25T23:58:55.549Z,-3.01
